createdAt,value
2022-12-20T00:02:01.830Z,9.90
2022-12-20T00:04:30.953Z,9.90
2022-12-20T00:06:59.943Z,9.90
2022-12-20T00:09:30.214Z,9.90
2022-12-20T00:11:59.229Z,9.90
2022-12-20T00:14:28.229Z,9.90
2022-12-20T00:16:57.256Z,9.90
2022-12-20T00:19:27.637Z,9.90
2022-12-20T00:21:56.574Z,9.80
2022-12-20T00:24:26.470Z,9.80
2022-12-20T00:26:55.682Z,9.80
2022-12-20T00:29:24.728Z,9.90
2022-12-20T00:31:53.744Z,9.90
2022-12-20T00:34:22.922Z,9.90
2022-12-20T00:36:53.299Z,9.90
2022-12-20T00:39:22.295Z,9.90
2022-12-20T00:41:51.306Z,9.90
2022-12-20T00:44:20.285Z,9.90
2022-12-20T00:46:49.347Z,9.90
2022-12-20T00:49:18.380Z,9.90
2022-12-20T00:51:47.455Z,9.90
2022-12-20T00:54:17.884Z,9.90
2022-12-20T00:56:47.032Z,9.90
2022-12-20T00:59:16.007Z,9.90
2022-12-20T01:01:45.463Z,9.90
2022-12-20T01:04:14.627Z,9.90
2022-12-20T01:06:44.664Z,9.90
2022-12-20T01:09:13.904Z,9.90
2022-12-20T01:11:44.262Z,9.90
2022-12-20T01:14:16.006Z,9.90
2022-12-20T01:16:47.650Z,10.00
2022-12-20T01:19:18.632Z,10.00
2022-12-20T01:21:48.107Z,10.00
2022-12-20T01:24:20.545Z,10.00
2022-12-20T01:26:51.052Z,10.00
2022-12-20T01:29:20.719Z,10.00
2022-12-20T01:31:49.948Z,10.00
2022-12-20T01:34:19.095Z,10.00
2022-12-20T01:36:49.633Z,10.10
2022-12-20T01:39:19.290Z,10.10
2022-12-20T01:41:48.515Z,10.10
2022-12-20T01:44:58.553Z,10.10
2022-12-20T01:47:30.606Z,10.00
2022-12-20T01:50:02.340Z,10.00
2022-12-20T01:52:36.025Z,10.00
2022-12-20T01:55:10.153Z,10.00
2022-12-20T01:57:43.993Z,9.90
2022-12-20T02:00:16.255Z,9.90
2022-12-20T02:02:47.001Z,9.90
2022-12-20T02:05:16.899Z,9.90
2022-12-20T02:07:49.714Z,9.90
2022-12-20T02:10:20.329Z,9.90
2022-12-20T02:12:52.917Z,9.90
2022-12-20T02:15:36.739Z,9.90
2022-12-20T02:18:21.428Z,9.90
2022-12-20T02:21:15.726Z,9.90
2022-12-20T02:24:25.701Z,9.90
2022-12-20T02:27:33.683Z,9.80
2022-12-20T02:30:08.510Z,9.80
2022-12-20T02:32:44.009Z,9.80
2022-12-20T02:35:15.875Z,9.70
2022-12-20T02:37:57.052Z,9.70
2022-12-20T02:40:29.180Z,9.80
2022-12-20T02:43:02.277Z,9.80
2022-12-20T02:45:35.223Z,9.80
2022-12-20T02:48:08.762Z,9.80
2022-12-20T02:50:41.544Z,9.80
2022-12-20T02:53:11.506Z,9.80
2022-12-20T02:55:47.220Z,9.80
2022-12-20T02:58:23.010Z,9.80
2022-12-20T03:00:56.476Z,9.80
2022-12-20T03:03:25.933Z,9.80
2022-12-20T03:05:56.768Z,9.80
2022-12-20T03:08:27.041Z,9.80
2022-12-20T03:10:57.348Z,9.90
2022-12-20T03:13:27.675Z,9.90
2022-12-20T03:16:02.797Z,9.90
2022-12-20T03:18:31.837Z,9.90
2022-12-20T03:21:00.938Z,9.90
2022-12-20T03:23:30.329Z,9.90
2022-12-20T03:25:59.886Z,9.90
2022-12-20T03:28:35.336Z,9.90
2022-12-20T03:31:06.144Z,9.90
2022-12-20T03:33:42.876Z,9.90
2022-12-20T03:36:12.135Z,10.00
2022-12-20T03:38:41.653Z,9.90
2022-12-20T03:41:11.006Z,9.90
2022-12-20T03:43:40.046Z,9.90
2022-12-20T03:46:10.613Z,10.00
2022-12-20T03:48:40.459Z,10.00
2022-12-20T03:51:12.242Z,10.00
2022-12-20T03:53:41.479Z,10.00
2022-12-20T03:56:11.014Z,10.00
2022-12-20T03:58:40.694Z,9.90
2022-12-20T04:01:23.476Z,9.90
2022-12-20T04:03:53.352Z,9.90
2022-12-20T04:06:23.116Z,10.00
2022-12-20T04:08:53.192Z,9.90
2022-12-20T04:11:30.357Z,9.90
2022-12-20T04:14:07.574Z,9.90
2022-12-20T04:16:38.739Z,9.90
2022-12-20T04:19:08.869Z,9.90
2022-12-20T04:21:42.989Z,9.90
2022-12-20T04:24:12.285Z,9.90
2022-12-20T04:26:49.368Z,9.90
2022-12-20T04:29:19.260Z,9.90
2022-12-20T04:31:50.187Z,9.90
2022-12-20T04:34:20.060Z,9.90
2022-12-20T04:36:49.579Z,9.90
2022-12-20T04:39:28.280Z,9.90
2022-12-20T04:42:17.055Z,9.90
2022-12-20T04:44:46.275Z,9.80
2022-12-20T04:47:19.683Z,9.80
2022-12-20T04:49:48.829Z,9.80
2022-12-20T04:52:35.351Z,9.80
2022-12-20T04:55:04.839Z,9.80
2022-12-20T04:57:35.890Z,9.80
2022-12-20T05:00:08.747Z,9.80
2022-12-20T05:02:43.976Z,9.80
2022-12-20T05:05:16.453Z,9.70
2022-12-20T05:07:52.038Z,9.70
2022-12-20T05:10:21.045Z,9.60
2022-12-20T05:12:50.990Z,9.70
2022-12-20T05:15:30.589Z,9.70
2022-12-20T05:18:02.122Z,9.70
2022-12-20T05:20:40.921Z,9.70
2022-12-20T05:23:29.163Z,9.70
2022-12-20T05:26:19.530Z,9.70
2022-12-20T05:28:50.516Z,9.70
2022-12-20T05:31:20.142Z,9.60
2022-12-20T05:33:50.677Z,9.60
2022-12-20T05:36:20.218Z,9.70
2022-12-20T05:38:50.218Z,9.60
2022-12-20T05:41:21.545Z,9.60
2022-12-20T05:43:53.706Z,9.60
2022-12-20T05:46:22.847Z,9.60
2022-12-20T05:49:06.148Z,9.60
2022-12-20T05:51:35.537Z,9.60
2022-12-20T05:54:13.952Z,9.60
2022-12-20T05:57:08.930Z,9.60
2022-12-20T05:59:40.807Z,9.50
2022-12-20T06:02:16.772Z,9.60
2022-12-20T06:04:48.663Z,9.60
2022-12-20T06:07:20.605Z,9.60
2022-12-20T06:09:53.186Z,9.60
2022-12-20T06:12:27.351Z,9.60
2022-12-20T06:14:57.344Z,9.50
2022-12-20T06:17:26.377Z,9.60
2022-12-20T06:19:57.024Z,9.60
2022-12-20T06:22:26.934Z,9.50
2022-12-20T06:24:58.858Z,9.50
2022-12-20T06:27:32.020Z,9.50
2022-12-20T06:30:09.861Z,9.50
2022-12-20T06:33:07.857Z,9.50
2022-12-20T06:35:38.373Z,9.50
2022-12-20T06:38:08.476Z,9.50
2022-12-20T06:40:38.227Z,9.50
2022-12-20T06:43:07.210Z,9.50
2022-12-20T06:45:41.542Z,9.50
2022-12-20T06:48:11.674Z,9.50
2022-12-20T06:50:42.576Z,9.50
2022-12-20T06:53:11.813Z,9.50
2022-12-20T06:55:41.274Z,9.50
2022-12-20T06:58:10.309Z,9.50
2022-12-20T07:00:40.386Z,9.60
2022-12-20T07:03:09.586Z,9.50
2022-12-20T07:05:38.686Z,9.50
2022-12-20T07:08:09.486Z,9.50
2022-12-20T07:10:39.191Z,9.50
2022-12-20T07:13:09.254Z,9.50
2022-12-20T07:15:38.324Z,9.50
2022-12-20T07:18:07.625Z,9.40
2022-12-20T07:20:36.929Z,9.40
2022-12-20T07:23:06.133Z,9.40
2022-12-20T07:25:36.517Z,9.40
2022-12-20T07:28:06.965Z,9.40
2022-12-20T07:30:35.935Z,9.40
2022-12-20T07:33:06.386Z,9.40
2022-12-20T07:35:35.622Z,9.40
2022-12-20T07:38:04.749Z,9.40
2022-12-20T07:40:33.827Z,9.40
2022-12-20T07:43:05.269Z,9.30
2022-12-20T07:45:34.954Z,9.40
2022-12-20T07:48:10.207Z,9.30
2022-12-20T07:50:43.313Z,9.30
2022-12-20T07:53:12.896Z,9.30
2022-12-20T07:55:42.585Z,9.30
2022-12-20T07:58:14.184Z,9.30
2022-12-20T08:00:43.412Z,9.30
2022-12-20T08:03:17.094Z,9.30
2022-12-20T08:05:51.071Z,9.30
2022-12-20T08:08:20.862Z,9.30
2022-12-20T08:10:50.111Z,9.30
2022-12-20T08:13:20.606Z,9.30
2022-12-20T08:15:49.680Z,9.30
2022-12-20T08:18:18.660Z,9.20
2022-12-20T08:20:47.979Z,9.20
2022-12-20T08:23:17.106Z,9.20
2022-12-20T08:25:46.159Z,9.20
2022-12-20T08:28:15.156Z,9.20
2022-12-20T08:30:46.809Z,9.20
2022-12-20T08:33:15.875Z,9.20
2022-12-20T08:35:45.037Z,9.20
2022-12-20T08:38:14.076Z,9.10
2022-12-20T08:40:43.109Z,9.10
2022-12-20T08:43:12.143Z,9.10
2022-12-20T08:45:41.277Z,9.10
2022-12-20T08:48:11.720Z,9.10
2022-12-20T08:50:40.732Z,9.10
2022-12-20T08:53:09.735Z,9.20
2022-12-20T08:55:38.709Z,9.20
2022-12-20T08:58:07.710Z,9.10
2022-12-20T09:00:37.647Z,9.10
2022-12-20T09:03:08.056Z,9.10
2022-12-20T09:05:44.284Z,9.10
2022-12-20T09:08:13.373Z,9.20
2022-12-20T09:10:42.512Z,9.10
2022-12-20T09:13:12.263Z,9.10
2022-12-20T09:15:42.455Z,9.10
2022-12-20T09:18:11.479Z,9.10
2022-12-20T09:20:46.498Z,9.10
2022-12-20T09:23:15.485Z,9.10
2022-12-20T09:25:48.833Z,9.10
2022-12-20T09:28:21.177Z,9.10
2022-12-20T09:30:50.196Z,9.10
2022-12-20T09:33:19.255Z,9.10
2022-12-20T09:35:49.738Z,9.10
2022-12-20T09:38:18.781Z,9.10
2022-12-20T09:40:49.866Z,9.10
2022-12-20T09:43:20.976Z,9.10
2022-12-20T09:45:54.340Z,9.20
2022-12-20T09:48:26.539Z,9.20
2022-12-20T09:51:07.379Z,9.20
2022-12-20T09:53:49.148Z,9.20
2022-12-20T09:56:25.066Z,9.30
2022-12-20T09:59:03.512Z,9.20
2022-12-20T10:01:39.397Z,9.20
2022-12-20T10:04:17.001Z,9.30
2022-12-20T10:06:55.702Z,9.30
2022-12-20T10:09:51.328Z,9.40
2022-12-20T10:12:32.905Z,9.40
2022-12-20T10:15:20.755Z,9.50
2022-12-20T10:18:07.929Z,9.40
2022-12-20T10:20:48.289Z,9.40
2022-12-20T10:23:32.732Z,9.40
2022-12-20T10:26:03.009Z,9.50
2022-12-20T10:28:35.191Z,9.50
2022-12-20T10:31:06.529Z,9.50
2022-12-20T10:33:36.121Z,9.50
2022-12-20T10:36:21.308Z,9.50
2022-12-20T10:38:53.820Z,9.40
2022-12-20T10:41:24.835Z,9.40
2022-12-20T10:43:59.694Z,9.50
2022-12-20T10:46:39.279Z,9.50
2022-12-20T10:49:31.248Z,9.60
2022-12-20T10:52:02.968Z,9.70
2022-12-20T10:54:35.912Z,9.70
2022-12-20T10:57:21.191Z,9.80
2022-12-20T10:59:52.662Z,9.90
2022-12-20T11:02:37.044Z,10.00
2022-12-20T11:05:24.271Z,10.00
2022-12-20T11:10:47.820Z,10.10
2022-12-20T11:13:23.576Z,10.10
2022-12-20T11:15:57.073Z,10.20
2022-12-20T11:18:37.831Z,10.20
2022-12-20T11:21:25.897Z,10.20
2022-12-20T11:24:03.662Z,10.20
2022-12-20T11:26:50.934Z,10.30
2022-12-20T11:29:38.558Z,10.30
2022-12-20T11:32:17.682Z,10.40
2022-12-20T11:34:55.604Z,10.40
2022-12-20T11:37:27.104Z,10.50
2022-12-20T11:40:12.123Z,10.50
2022-12-20T11:42:55.442Z,10.50
2022-12-20T11:45:31.635Z,10.50
2022-12-20T11:48:21.025Z,10.50
2022-12-20T11:51:07.581Z,10.50
2022-12-20T11:53:44.922Z,10.50
2022-12-20T11:56:18.308Z,10.50
2022-12-20T11:58:54.458Z,10.50
2022-12-20T12:01:27.541Z,10.60
2022-12-20T12:04:06.277Z,10.60
2022-12-20T12:06:38.876Z,10.60
2022-12-20T12:09:16.776Z,10.60
2022-12-20T12:12:09.222Z,10.60
2022-12-20T12:14:51.898Z,10.60
2022-12-20T12:17:29.263Z,10.40
2022-12-20T12:20:11.728Z,10.40
2022-12-20T12:22:42.355Z,10.40
2022-12-20T12:25:16.538Z,10.50
2022-12-20T12:27:46.017Z,10.40
2022-12-20T12:30:17.908Z,10.40
2022-12-20T12:32:53.769Z,10.40
2022-12-20T12:35:47.631Z,10.40
2022-12-20T12:38:39.768Z,10.40
2022-12-20T12:41:52.015Z,10.40
2022-12-20T12:44:40.172Z,10.40
2022-12-20T12:47:17.509Z,10.40
2022-12-20T12:49:50.480Z,10.40
2022-12-20T12:52:43.639Z,10.30
2022-12-20T12:55:38.486Z,10.30
2022-12-20T12:58:35.268Z,10.30
2022-12-20T13:01:09.101Z,10.40
2022-12-20T13:04:08.661Z,10.40
2022-12-20T13:07:25.729Z,10.30
2022-12-20T13:09:55.259Z,10.30
2022-12-20T13:12:59.875Z,10.30
2022-12-20T13:15:52.085Z,10.30
2022-12-20T13:18:29.400Z,10.30
2022-12-20T13:21:31.993Z,10.30
2022-12-20T13:24:36.685Z,10.30
2022-12-20T13:27:22.692Z,10.30
2022-12-20T13:29:56.962Z,10.30
2022-12-20T13:33:04.036Z,10.30
2022-12-20T13:35:47.863Z,10.20
2022-12-20T13:38:52.155Z,10.20
2022-12-20T13:41:36.431Z,10.20
2022-12-20T13:44:47.470Z,10.20
2022-12-20T13:47:35.498Z,10.20
2022-12-20T13:50:28.969Z,10.20
2022-12-20T13:52:58.740Z,10.20
2022-12-20T13:55:45.368Z,10.20
2022-12-20T13:58:19.853Z,10.20
2022-12-20T14:00:50.210Z,10.10
2022-12-20T14:03:25.726Z,10.10
2022-12-20T14:05:59.674Z,10.10
2022-12-20T14:08:31.670Z,10.10
2022-12-20T14:11:11.720Z,10.10
2022-12-20T14:13:41.290Z,10.10
2022-12-20T14:16:14.539Z,10.10
2022-12-20T14:18:44.512Z,10.10
2022-12-20T14:21:13.561Z,10.10
2022-12-20T14:23:45.360Z,10.10
2022-12-20T14:26:18.303Z,10.10
2022-12-20T14:28:49.516Z,10.00
2022-12-20T14:31:27.273Z,10.00
2022-12-20T14:34:05.686Z,10.00
2022-12-20T14:36:36.108Z,10.00
2022-12-20T14:39:24.225Z,10.00
2022-12-20T14:41:59.964Z,10.00
2022-12-20T14:44:30.417Z,10.00
2022-12-20T14:47:01.521Z,9.90
2022-12-20T14:49:32.138Z,9.90
2022-12-20T14:52:14.574Z,9.90
2022-12-20T14:57:45.684Z,9.90
2022-12-20T15:00:22.436Z,9.90
2022-12-20T15:02:59.279Z,9.80
2022-12-20T15:05:45.494Z,9.80
2022-12-20T15:08:16.867Z,9.80
2022-12-20T15:10:49.546Z,9.80
2022-12-20T15:13:21.854Z,9.80
2022-12-20T15:15:50.852Z,9.70
2022-12-20T15:18:22.601Z,9.70
2022-12-20T15:21:01.886Z,9.70
2022-12-20T15:23:34.820Z,9.70
2022-12-20T15:26:04.060Z,9.60
2022-12-20T15:28:34.506Z,9.60
2022-12-20T15:31:04.849Z,9.60
2022-12-20T15:33:35.946Z,9.60
2022-12-20T15:36:05.156Z,9.60
2022-12-20T15:38:55.246Z,9.60
2022-12-20T15:41:25.073Z,9.60
2022-12-20T15:43:57.686Z,9.50
2022-12-20T15:46:27.079Z,9.50
2022-12-20T15:48:56.368Z,9.50
2022-12-20T15:51:29.956Z,9.50
2022-12-20T15:53:59.363Z,9.40
2022-12-20T15:56:29.445Z,9.50
2022-12-20T15:58:59.869Z,9.40
2022-12-20T16:01:38.314Z,9.30
2022-12-20T16:04:15.866Z,9.40
2022-12-20T16:06:46.098Z,9.30
2022-12-20T16:09:15.424Z,9.30
2022-12-20T16:11:44.997Z,9.30
2022-12-20T16:14:17.831Z,9.30
2022-12-20T16:16:47.970Z,9.30
2022-12-20T16:19:17.689Z,9.30
2022-12-20T16:21:49.171Z,9.20
2022-12-20T16:24:20.734Z,9.20
2022-12-20T16:26:54.358Z,9.20
2022-12-20T16:29:24.756Z,9.20
2022-12-20T16:31:53.745Z,9.10
2022-12-20T16:34:22.881Z,9.10
2022-12-20T16:36:52.304Z,9.10
2022-12-20T16:39:21.300Z,9.10
2022-12-20T16:41:50.371Z,9.10
2022-12-20T16:44:19.572Z,9.10
2022-12-20T16:46:50.059Z,9.10
2022-12-20T16:49:20.784Z,9.00
2022-12-20T16:51:50.913Z,9.00
2022-12-20T16:54:22.397Z,9.00
2022-12-20T16:56:55.583Z,9.00
2022-12-20T16:59:25.277Z,9.00
2022-12-20T17:01:58.000Z,9.00
2022-12-20T17:04:27.771Z,8.90
2022-12-20T17:06:56.820Z,9.00
2022-12-20T17:09:25.826Z,8.90
2022-12-20T17:11:54.896Z,8.90
2022-12-20T17:14:23.937Z,8.90
2022-12-20T17:16:53.093Z,8.90
2022-12-20T17:19:23.699Z,8.90
2022-12-20T17:24:39.123Z,8.90
2022-12-20T17:27:08.198Z,8.90
2022-12-20T17:29:37.216Z,8.80
2022-12-20T17:32:19.925Z,8.90
2022-12-20T17:34:50.888Z,8.90
2022-12-20T17:37:21.185Z,8.90
2022-12-20T17:39:50.711Z,8.80
2022-12-20T17:42:19.743Z,8.90
2022-12-20T17:44:48.768Z,8.80
2022-12-20T17:47:18.062Z,8.80
2022-12-20T17:49:47.209Z,8.90
2022-12-20T17:52:17.652Z,8.90
2022-12-20T17:54:46.687Z,8.90
2022-12-20T17:57:16.760Z,8.90
2022-12-20T17:59:46.356Z,8.90
2022-12-20T18:02:22.424Z,8.90
2022-12-20T18:04:51.888Z,8.90
2022-12-20T18:07:22.713Z,8.90
2022-12-20T18:09:52.136Z,8.90
2022-12-20T18:12:21.263Z,8.90
2022-12-20T18:14:50.811Z,8.90
2022-12-20T18:17:19.895Z,8.90
2022-12-20T18:19:48.962Z,8.90
2022-12-20T18:22:18.489Z,8.90
2022-12-20T18:24:48.915Z,8.90
2022-12-20T18:27:17.946Z,8.90
2022-12-20T18:29:47.037Z,8.90
2022-12-20T18:32:16.177Z,8.90
2022-12-20T18:34:45.490Z,8.90
2022-12-20T18:37:14.941Z,8.90
2022-12-20T18:39:44.093Z,8.90
2022-12-20T18:42:14.513Z,8.90
2022-12-20T18:44:43.566Z,8.90
2022-12-20T18:47:12.654Z,9.00
2022-12-20T18:49:41.799Z,9.00
2022-12-20T18:52:10.805Z,9.00
2022-12-20T18:54:39.887Z,9.00
2022-12-20T18:57:08.866Z,9.00
2022-12-20T18:59:39.297Z,9.10
2022-12-20T19:02:10.652Z,9.10
2022-12-20T19:04:40.108Z,9.10
2022-12-20T19:07:09.763Z,9.10
2022-12-20T19:09:38.913Z,9.10
2022-12-20T19:12:08.108Z,9.10
2022-12-20T19:14:38.484Z,9.10
2022-12-20T19:17:07.708Z,9.10
2022-12-20T19:19:36.803Z,9.10
2022-12-20T19:22:05.784Z,9.20
2022-12-20T19:24:34.788Z,9.20
2022-12-20T19:27:04.320Z,9.20
2022-12-20T19:29:33.392Z,9.20
2022-12-20T19:32:03.743Z,9.20
2022-12-20T19:34:32.740Z,9.10
2022-12-20T19:37:01.803Z,9.10
2022-12-20T19:39:30.877Z,9.10
2022-12-20T19:42:23.035Z,9.10
2022-12-20T19:44:49.845Z,9.10
2022-12-20T19:47:20.393Z,9.10
2022-12-20T19:49:49.498Z,9.10
2022-12-20T19:52:28.983Z,9.10
2022-12-20T19:54:58.204Z,9.10
2022-12-20T19:57:27.233Z,9.10
2022-12-20T19:59:56.573Z,9.20
2022-12-20T20:02:27.219Z,9.20
2022-12-20T20:04:56.389Z,9.10
2022-12-20T20:07:25.383Z,9.10
2022-12-20T20:09:54.360Z,9.10
2022-12-20T20:12:23.326Z,9.10
2022-12-20T20:14:52.967Z,9.10
2022-12-20T20:17:22.135Z,9.10
2022-12-20T20:19:52.890Z,9.10
2022-12-20T20:22:23.300Z,9.10
2022-12-20T20:24:52.435Z,9.10
2022-12-20T20:27:21.447Z,9.10
2022-12-20T20:29:51.281Z,9.10
2022-12-20T20:32:20.294Z,9.10
2022-12-20T20:34:49.817Z,9.10
2022-12-20T20:37:20.332Z,9.10
2022-12-20T20:39:49.352Z,9.10
2022-12-20T20:42:23.180Z,9.10
2022-12-20T20:44:52.621Z,9.00
2022-12-20T20:47:21.749Z,9.00
2022-12-20T20:49:52.806Z,9.00
2022-12-20T20:52:23.440Z,9.00
2022-12-20T20:54:52.611Z,9.10
2022-12-20T20:57:21.697Z,9.10
2022-12-20T20:59:50.768Z,9.00
2022-12-20T21:02:21.062Z,9.00
2022-12-20T21:05:27.569Z,9.00
2022-12-20T21:07:40.940Z,9.00
2022-12-20T21:10:11.178Z,9.00
2022-12-20T21:12:40.341Z,9.00
2022-12-20T21:15:22.351Z,9.00
2022-12-20T21:17:51.871Z,9.00
2022-12-20T21:20:25.909Z,8.90
2022-12-20T21:22:57.468Z,9.00
2022-12-20T21:25:26.496Z,9.00
2022-12-20T21:27:55.704Z,9.00
2022-12-20T21:30:25.191Z,9.00
2022-12-20T21:32:54.248Z,9.00
2022-12-20T21:35:23.305Z,9.00
2022-12-20T21:37:52.359Z,8.90
2022-12-20T21:40:23.028Z,9.00
2022-12-20T21:42:52.031Z,9.00
2022-12-20T21:45:21.420Z,9.00
2022-12-20T21:47:50.393Z,9.00
2022-12-20T21:50:19.495Z,9.00
2022-12-20T21:52:48.516Z,9.00
2022-12-20T21:55:17.619Z,9.00
2022-12-20T21:57:48.506Z,9.00
2022-12-20T22:00:19.837Z,9.00
2022-12-20T22:02:48.962Z,9.00
2022-12-20T22:05:18.013Z,9.00
2022-12-20T22:07:47.496Z,9.00
2022-12-20T22:10:16.619Z,9.00
2022-12-20T22:12:47.050Z,9.00
2022-12-20T22:15:16.178Z,9.00
2022-12-20T22:17:45.190Z,9.00
2022-12-20T22:20:14.266Z,9.00
2022-12-20T22:22:43.248Z,9.00
2022-12-20T22:25:12.265Z,9.00
2022-12-20T22:27:41.250Z,9.00
2022-12-20T22:30:13.050Z,9.00
2022-12-20T22:32:42.282Z,9.00
2022-12-20T22:35:11.431Z,8.90
2022-12-20T22:37:40.481Z,8.90
2022-12-20T22:40:10.825Z,8.90
2022-12-20T22:42:40.987Z,8.90
2022-12-20T22:45:12.490Z,8.90
2022-12-20T22:47:43.002Z,9.00
2022-12-20T22:50:12.766Z,9.00
2022-12-20T22:52:41.778Z,9.00
2022-12-20T22:55:11.448Z,9.00
2022-12-20T22:57:40.524Z,9.00
2022-12-20T23:00:13.305Z,9.00
2022-12-20T23:02:42.603Z,9.00
2022-12-20T23:05:11.757Z,9.00
2022-12-20T23:07:40.744Z,9.00
2022-12-20T23:10:30.868Z,9.00
2022-12-20T23:13:17.373Z,9.00
2022-12-20T23:15:49.722Z,9.10
2022-12-20T23:18:18.744Z,9.00
2022-12-20T23:21:13.106Z,9.00
2022-12-20T23:23:42.206Z,9.00
2022-12-20T23:26:12.274Z,9.00
2022-12-20T23:28:41.532Z,9.00
2022-12-20T23:31:12.466Z,9.00
2022-12-20T23:33:43.384Z,9.00
2022-12-20T23:36:13.133Z,9.10
2022-12-20T23:38:42.226Z,9.00
2022-12-20T23:41:13.756Z,9.00
2022-12-20T23:43:43.016Z,9.10
2022-12-20T23:46:16.002Z,9.10
2022-12-20T23:48:45.435Z,9.10
2022-12-20T23:51:14.738Z,9.20
2022-12-20T23:53:43.742Z,9.20
2022-12-20T23:56:15.414Z,9.20
2022-12-20T23:58:45.164Z,9.30
